Station LTRM4 - 9076033 - Little Rapids, MI Image indicating link to RSS feed of recent meteorological observations for station LTRM4


Conditions at LTRM4 as of
(5:18 am EDT)
0918 GMT on 09/01/2026:
     

Click on the graph icon in the table below to see a time series plot of the last five days of that observation.

5-day plot - Wind Speed Wind Speed (WSPD): 0.0 kts
5-day plot - Wind Gust Wind Gust (GST): 0.0 kts
5-day plot - Atmospheric Pressure Atmospheric Pressure (PRES):29.90 in
5-day plot - Water Temperature Water Temperature (WTMP): 62.4 °F
5-day plot - Wind Speed at 10 Meters Wind Speed at 10 meters (WSPD10M): 0.0 kts
5-day plot - Wind Speed at 20 Meters Wind Speed at 20 meters (WSPD20M): 0.0 kts
5-day plot -  Wind Speed, Wind Gust and Atmospheric Pressure Combined plot of Wind Speed, Gust, and Air Pressure
NOS Water Level Observation Network Water Level
Previous observations
TIME
(EDT)
5-day plot - Wind Direction
WDIR
 
5-day plot - Wind Speed
WSPD
kts
5-day plot - Wind Gust
GST
kts
5-day plot - Wave Height
WVHT
ft
5-day plot - Dominant Wave Period
DPD
sec
5-day plot - Average Wave Period
APD
sec
5-day plot - Mean Wave Direction
MWD
 
5-day plot - Atmospheric Pressure
PRES
in
5-day plot - Pressure Tendency
PTDY
in
5-day plot - Air Temperature
ATMP
°F
5-day plot - Water Temperature
WTMP
°F
5-day plot - Dew Point
DEWP
°F
5-day plot - Salinity
SAL
psu
5-day plot - Visibility
VIS
nmi
5-day plot - Tide (above MLLW)
TIDE
ft
2026-09-01 05:12 am- 0.0 0.0----29.90-- 62.4----
2026-09-01 05:06 am- 0.0 0.0----29.90-- 62.4----
2026-09-01 05:00 am- 0.0 0.0----29.90+0.02 67.1 62.4----
2026-09-01 04:48 am- 0.0 0.0----29.89-- 62.4----
2026-09-01 04:42 am- 0.0 0.0----29.89-- 62.4----
2026-09-01 04:36 am- 0.0 0.0----29.89-- 62.4----
2026-09-01 04:30 am- 0.0 0.0----29.89- 66.7 62.4----
2026-09-01 04:24 am- 0.0 0.0----29.89- 67.1 62.4----
2026-09-01 04:18 am- 0.0 0.0----29.89-- 62.4----
2026-09-01 04:12 am- 0.0 0.0----29.89-- 62.4----
2026-09-01 04:06 am- 0.0 0.0----29.89-- 62.4----
2026-09-01 04:00 am- 0.0 0.0----29.89+0.02 67.5 62.4----
2026-09-01 03:54 am- 0.0 1.9----29.89- 67.5 62.4----
2026-09-01 03:48 amSSE 1.9 2.9----29.89- 67.1 62.4----
2026-09-01 03:42 am- 0.0 1.0----29.89- 67.5 62.2----
2026-09-01 03:36 am- 0.0 0.0----29.89- 67.6 62.2----
2026-09-01 03:30 am- 0.0 0.0----29.89- 67.6 62.2----
2026-09-01 03:24 am- 0.0 0.0----29.89- 67.6 62.2----
2026-09-01 03:18 am NW 1.0 1.9----29.89- 67.6 62.2----
2026-09-01 03:12 am- 0.0 0.0----29.89- 67.6 62.2----
2026-09-01 03:06 am- 0.0 0.0----29.89- 67.8 62.2----
2026-09-01 03:00 am- 0.0 0.0------ 67.6 62.2----
2026-09-01 02:54 am- 0.0 0.0------ 67.6 62.2----
2026-09-01 02:48 am- 0.0 0.0----29.88- 67.6 62.2----
2026-09-01 02:42 am- 0.0 0.0----29.88- 67.6 62.2----
2026-09-01 02:36 am- 0.0 0.0----29.88- 67.5 62.2----
2026-09-01 02:30 am- 0.0 0.0----29.88-- 62.2----
2026-09-01 02:24 am- 0.0 0.0----29.88-- 62.2----
2026-09-01 02:18 am- 0.0 0.0----29.88-- 62.2----
2026-09-01 02:12 am- 0.0 0.0----29.88-- 62.1----
2026-09-01 02:06 am- 0.0 0.0----29.88-- 62.1----
2026-09-01 02:00 am- 0.0 0.0----29.88-0.02 67.5 62.1----
2026-09-01 01:54 am- 0.0 0.0----29.88- 67.6 62.1----
2026-09-01 01:48 am- 0.0 0.0----29.88- 67.6 62.1----
2026-09-01 01:42 am- 0.0 0.0----29.88- 67.6 62.1----
2026-09-01 01:36 am- 0.0 1.9----29.88- 67.6 62.1----
2026-09-01 01:30 am S 1.9 2.9----29.88- 67.6 62.1----
2026-09-01 01:24 amSSE 1.9 2.9----29.87- 67.6 62.1----
2026-09-01 01:18 am- 0.0 2.9----29.88-- 62.1----
2026-09-01 01:12 amSSE 2.9 6.0----29.88-- 62.1----
2026-09-01 01:06 am SE 5.1 6.0----29.87-- 62.1----
2026-09-01 01:00 am SE 2.9 4.1----29.87-0.02 67.5 62.1----
2026-09-01 12:54 am- 0.0 2.9----29.88- 67.5 62.1----
2026-09-01 12:48 amESE 1.0 5.1----29.88- 67.5 62.1----
2026-09-01 12:42 am- 0.0 2.9----29.88- 67.5 62.1----
2026-09-01 12:36 am E 1.0 4.1----29.88- 67.5 62.1----
2026-09-01 12:30 amESE 1.9 5.1----29.87- 67.5 62.2----
2026-09-01 12:24 amESE 4.1 6.0----29.87- 67.5 62.2----
2026-09-01 12:18 amESE 4.1 5.1----29.88-- 62.1----
2026-09-01 12:12 amESE 2.9 4.1----29.88-- 62.2----
2026-09-01 12:06 am E 1.9 2.9----29.88-- 62.2----
2026-09-01 12:00 am E 1.0 1.9----29.88-0.01 67.3 62.2----
2026-08-31 11:54 pm E 1.9 2.9----29.88- 67.3 62.2----
2026-08-31 11:48 pmENE 1.9 1.9----29.88-- 62.2----
2026-08-31 11:42 pm E 1.0 2.9----29.88-- 62.2----
2026-08-31 11:36 pm E 2.9 4.1----29.88-- 62.2----
2026-08-31 11:30 pmENE 2.9 4.1----29.89- 67.3 62.2----
2026-08-31 11:24 pm NE 2.9 4.1----29.89- 67.3 62.2----
2026-08-31 11:18 pmENE 2.9 4.1------- 62.2----
2026-08-31 11:12 pm E 2.9 2.9------- 62.2----
2026-08-31 11:06 pm E 2.9 2.9------- 62.2----
2026-08-31 11:00 pmENE 1.9 1.9----29.90+0.01 67.6 62.2----
2026-08-31 10:54 pmENE 1.9 1.9----29.90- 67.5 62.2----
2026-08-31 10:48 pmENE 1.9 1.9----29.90- 67.5 62.2----
2026-08-31 10:42 pm- 0.0 1.9----29.90- 67.5 62.2----
2026-08-31 10:36 pmENE 1.9 2.9----29.89- 67.5 62.2----
2026-08-31 10:30 pm E 2.9 4.1----29.89- 67.6 62.2----
2026-08-31 10:24 pmESE 1.9 5.1----29.89- 67.6 62.2----
2026-08-31 10:18 pmESE 4.1 5.1----29.89-- 62.2----
2026-08-31 10:12 pm E 2.9 6.0----29.89-- 62.2----
2026-08-31 10:06 pmESE 1.9 5.1----29.89-- 62.2----
2026-08-31 10:00 pm SE 4.1 6.0----29.89+0.00 67.8 62.2----
2026-08-31 09:54 pmESE 4.1 6.0----29.89- 67.8 62.2----
2026-08-31 09:48 pm E 4.1 5.1----29.90- 67.8 62.4----
2026-08-31 09:42 pm E 2.9 5.1----29.90- 68.0 62.4----
2026-08-31 09:36 pmESE 4.1 5.1----29.90- 68.0 62.4----
2026-08-31 09:30 pmESE 5.1 7.0----29.90- 68.0 62.4----
2026-08-31 09:24 pm SE 5.1 7.0----29.90- 68.0 62.4----
2026-08-31 09:18 pmESE 5.1 8.0----29.90-- 62.4----
2026-08-31 09:12 pm SE 6.0 7.0----29.90-- 62.4----
2026-08-31 09:06 pmSSE 4.1 8.0----29.90-- 62.4----
2026-08-31 09:00 pmESE 7.0 8.0----29.90+0.00 68.4 62.4----
2026-08-31 08:54 pm SE 4.1 6.0----29.90- 68.2 62.4----
2026-08-31 08:48 pmESE 4.1 8.0----29.90-- 62.4----
2026-08-31 08:42 pmESE 5.1 7.0----29.89-- 62.4----
2026-08-31 08:36 pm E 6.0 8.0----29.89-- 62.4----
2026-08-31 08:30 pmESE 6.0 8.0----29.88- 68.2 62.4----
2026-08-31 08:24 pmESE 5.1 8.9----29.88- 68.2 62.4----
2026-08-31 08:18 pmESE 6.0 8.0----29.88-- 62.4----
2026-08-31 08:12 pm E 6.0 8.0----29.88-- 62.4----
2026-08-31 08:06 pm E 6.0 8.0----29.88-- 62.4----
2026-08-31 08:00 pmESE 6.0 8.9----29.88+0.00 68.0 62.4----
2026-08-31 07:54 pm E 6.0 8.9----29.88- 68.0 62.4----
2026-08-31 07:48 pmESE 6.0 8.9----29.88-- 62.4----
2026-08-31 07:42 pm E 6.0 7.0----29.88-- 62.4----
2026-08-31 07:36 pmESE 4.1 6.0----29.88-- 62.4----
2026-08-31 06:48 pm SE 2.9 6.0----29.89- 68.0 62.6----
2026-08-31 06:42 pm SE 5.1 8.9----29.89- 68.0 62.6----
2026-08-31 06:36 pm SE 5.1 6.0----29.89- 68.0 62.6----
2026-08-31 06:30 pm SE 6.0 7.0----29.89- 68.2 62.6----
2026-08-31 06:24 pm SE 5.1 6.0----29.90- 68.2 62.6----
2026-08-31 06:18 pmSSE 5.1 6.0----29.90- 68.0 62.6----
2026-08-31 06:12 pmSSE 6.0 8.9----29.89- 68.0 62.6----
2026-08-31 06:06 pmSSE 6.0 7.0----29.90- 68.2 62.6----
2026-08-31 06:00 pm SE 5.1 8.9----29.90-0.01 68.5 62.6----
2026-08-31 05:54 pm SE 5.1 7.0----29.90- 68.5 62.6----
2026-08-31 05:48 pmESE 6.0 8.9----29.89- 68.7 62.6----
2026-08-31 05:42 pmESE 6.0 9.9----29.89- 68.7 62.6----
2026-08-31 05:36 pmESE 7.0 11.1----29.89- 68.7 62.6----
2026-08-31 05:30 pmESE 5.1 8.0----29.90- 68.7 62.8----
2026-08-31 05:24 pm E 5.1 6.0----29.90- 68.7 62.6----
2026-08-31 05:18 pm E 5.1 6.0----29.90-- 62.6----
2026-08-31 05:12 pm E 5.1 8.9----29.90-- 62.8----
2026-08-31 05:06 pm E 5.1 8.9----29.89-- 62.8----
2026-08-31 05:00 pmESE 5.1 8.0----29.89-0.04 68.7 62.6----
2026-08-31 04:54 pm SE 7.0 11.1----29.89- 68.7 62.6----
2026-08-31 04:48 pmESE 6.0 8.9----29.88- 68.7 62.6----
2026-08-31 04:42 pmESE 7.0 8.9----29.89- 68.7 62.8----
2026-08-31 04:36 pmESE 6.0 9.9----29.89- 68.7 62.4----
2026-08-31 04:30 pm SE 5.1 8.0----29.90-- 62.4----
2026-08-31 04:24 pm SE 7.0 8.9----29.90-- 62.4----
2026-08-31 04:18 pmESE 5.1 8.9----29.89-- 62.4----
2026-08-31 04:12 pmESE 5.1 7.0----29.90-- 62.4----
2026-08-31 04:06 pmESE 6.0 8.9----29.90-- 62.4----
2026-08-31 04:00 pm E 7.0 9.9----29.91-0.04 68.2 62.4----
2026-08-31 03:54 pmESE 7.0 9.9----29.91- 68.2 62.4----
2026-08-31 03:48 pm E 6.0 8.9----29.91- 68.0 62.4----
2026-08-31 03:42 pm E 8.0 9.9----29.91- 68.0 62.4----
2026-08-31 03:36 pm E 6.0 8.0----29.91- 68.0 62.4----
2026-08-31 03:30 pm E 7.0 12.0----29.91- 67.8 62.4----
2026-08-31 03:24 pmESE 8.9 11.1----29.91- 67.8 62.6----
2026-08-31 03:18 pmESE 6.0 12.0----29.91-- 62.2----
2026-08-31 03:12 pm SE 5.1 7.0----29.91-- 62.2----
2026-08-31 03:06 pmESE 6.0 12.0----29.91-- 62.2----
2026-08-31 03:00 pmESE 8.0 12.0----29.91-0.04 67.5 62.2----
2026-08-31 02:54 pm E 8.9 11.1----29.92- 67.5 62.2----
2026-08-31 02:48 pmESE 7.0 9.9----29.93- 67.3 62.2----
2026-08-31 02:42 pmESE 7.0 9.9----29.93- 67.1 62.2----
2026-08-31 02:36 pm SE 4.1 8.0----29.93- 66.9 62.2----
2026-08-31 02:30 pmESE 5.1 8.9----29.93- 66.9 62.2----
2026-08-31 02:24 pmESE 6.0 8.0----29.93- 66.9 62.2----
2026-08-31 02:18 pmESE 6.0 9.9----29.94-- 62.2----
2026-08-31 02:12 pmESE 7.0 11.1----29.94-- 62.2----
2026-08-31 02:06 pmESE 8.9 12.0----29.94-- 62.2----
2026-08-31 02:00 pmESE 7.0 8.9----29.93-0.04 66.7 62.2----
2026-08-31 01:54 pmESE 8.0 13.0----29.93- 66.7 62.2----
2026-08-31 01:48 pmESE 8.0 12.0----29.93-- 62.2----
2026-08-31 01:42 pmESE 6.0 8.9----29.93-- 62.2----
2026-08-31 01:36 pmESE 6.0 12.0----29.94-- 62.2----
2026-08-31 01:30 pmESE 7.0 9.9----29.94- 66.7 62.2----
2026-08-31 01:24 pmESE 6.0 12.0----29.94- 66.9 62.2----
2026-08-31 01:18 pmESE 7.0 9.9----29.94-- 62.2----
2026-08-31 01:12 pmESE 7.0 11.1----29.94-- 62.2----
2026-08-31 01:06 pmESE 6.0 8.9----29.94-- 62.4----
2026-08-31 01:00 pmESE 5.1 8.0----29.94-0.03 66.4 62.4----
2026-08-31 12:54 pmESE 6.0 8.9----29.94- 66.4 62.2----
2026-08-31 12:48 pmESE 7.0 9.9----29.94- 66.4 62.4----
2026-08-31 12:42 pmESE 7.0 9.9----29.95- 66.4 62.4----
2026-08-31 12:36 pmESE 6.0 8.0----29.95- 66.4 62.4----
2026-08-31 12:30 pmESE 5.1 7.0----29.95- 66.4 62.2----
2026-08-31 12:24 pmESE 5.1 8.0----29.95- 66.2 62.2----
2026-08-31 12:18 pm SE 5.1 8.0----29.95-- 62.2----
2026-08-31 12:12 pm SE 7.0 8.9----29.95-- 62.2----
2026-08-31 12:06 pm SE 7.0 8.9----29.95-- 62.2----
2026-08-31 12:00 pm SE 6.0 8.0----29.95+0.00 66.0 62.2----
2026-08-31 11:54 amESE 8.0 9.9----29.95- 66.0 62.2----
2026-08-31 11:48 amESE 7.0 9.9----29.95- 66.0 62.2----
2026-08-31 11:42 amESE 6.0 8.9----29.96- 66.0 62.2----
2026-08-31 11:36 amESE 7.0 8.9----29.96- 66.0 62.2----
2026-08-31 11:30 amESE 6.0 9.9----29.96- 65.8 62.2----
2026-08-31 11:24 amESE 8.0 8.9----29.96- 65.8 62.2----
2026-08-31 11:18 amESE 7.0 9.9----29.96-- 62.2----
2026-08-31 11:12 amESE 5.1 8.9----29.96-- 62.2----
2026-08-31 11:06 amESE 7.0 11.1----29.97-- 62.2----
2026-08-31 11:00 amESE 7.0 12.0----29.97+0.02 65.8 62.2----
2026-08-31 10:54 amESE 6.0 8.9----29.97- 65.8 62.4----
2026-08-31 10:48 amESE 7.0 11.1----29.96- 65.8 62.4----
2026-08-31 10:42 amESE 6.0 8.0----29.96- 65.8 62.4----
2026-08-31 10:36 am SE 6.0 9.9----29.97- 65.8 62.4----
2026-08-31 10:30 am SE 7.0 8.0----29.97- 65.7 62.4----
2026-08-31 10:24 am SE 6.0 9.9----29.97- 65.8 62.4----
2026-08-31 10:18 amESE 7.0 9.9----29.97-- 62.4----
2026-08-31 10:12 am SE 6.0 12.0----29.97-- 62.4----
2026-08-31 10:06 amESE 8.0 12.0----29.97-- 62.4----
2026-08-31 10:00 am SE 8.9 11.1----29.97+0.01 66.0 62.4----
2026-08-31 09:54 am SE 8.0 14.0----29.97- 66.0 62.4----
2026-08-31 09:48 amSSE 9.9 14.0----29.97-- 62.4----
2026-08-31 09:42 am SE 8.9 12.0----29.97-- 62.4----
2026-08-31 09:36 amSSE 8.9 12.0----29.97-- 62.4----
2026-08-31 09:30 amSSE 8.9 11.1----29.96- 66.0 62.4----
2026-08-31 09:24 am SE 6.0 9.9----29.96- 66.0 62.4----
2026-08-31 09:18 am SE 8.9 12.0----29.96-- 62.4----
2026-08-31 09:12 am SE 9.9 13.0----29.96-- 62.4----
2026-08-31 09:06 am SE 8.0 11.1----29.96-- 62.4----
2026-08-31 09:00 am SE 8.9 14.0----29.95-0.03 66.2 62.4----
2026-08-31 08:54 am SE 8.0 11.1----29.95- 66.0 62.6----
2026-08-31 08:48 am SE 9.9 15.0----29.95-- 62.2----
2026-08-31 08:42 amESE 11.1 14.0----29.94-- 62.1----
2026-08-31 08:36 amESE 9.9 12.0----29.95-- 62.1----
2026-08-31 08:30 am SE 8.9 11.1----29.95- 66.2 62.1----
2026-08-31 08:24 am SE 8.9 14.0----29.94- 66.2 62.2----
2026-08-31 08:18 amESE 8.0 12.0----29.94-- 61.9----
2026-08-31 08:12 am SE 8.0 14.0----29.94-- 61.9----
2026-08-31 08:06 amESE 8.9 14.0----29.94-- 61.9----
2026-08-31 08:00 am SE 8.9 13.0----29.94-0.05 66.0 61.9----
2026-08-31 07:54 amESE 8.0 12.0----29.94- 66.0 62.1----
2026-08-31 07:48 amESE 8.0 11.1----29.94-- 62.1----
2026-08-31 07:42 amESE 6.0 9.9----29.94-- 62.1----
2026-08-31 07:36 am SE 9.9 13.0----29.94-- 62.1----
2026-08-31 07:30 amESE 11.1 15.0----29.94- 65.8 62.1----
2026-08-31 07:24 amESE 8.0 12.0----29.94- 65.8 62.1----
2026-08-31 07:18 amESE 8.9 13.0----29.94-- 62.1----
2026-08-31 07:12 amESE 8.0 14.0----29.94-- 62.1----
2026-08-31 07:06 amESE 7.0 12.0----29.95-- 62.1----
2026-08-31 07:00 amESE 8.0 11.1----29.95-0.03 65.7 62.1----
2026-08-31 06:54 amESE 6.0 9.9----29.95- 65.7 62.1----
2026-08-31 06:48 am SE 6.0 14.0------ 65.7 62.1----
2026-08-31 06:42 am E 12.0 15.0------ 65.7 62.1----
2026-08-31 06:36 amESE 8.0 11.1------ 65.8 62.1----
2026-08-31 06:30 am SE 7.0 11.1----29.97- 65.8 62.1----
2026-08-31 06:24 amESE 7.0 9.9----29.97- 66.0 62.1----
2026-08-31 06:18 amESE 7.0 8.0----29.98-- 62.1----
2026-08-31 06:12 amESE 7.0 8.9----29.98-- 62.1----
2026-08-31 06:06 amESE 5.1 8.0----29.98-- 62.1----
2026-08-31 06:00 am SE 5.1 8.9----29.98+0.00 66.0 62.1----
2026-08-31 05:54 amESE 5.1 7.0----29.98- 65.8 62.1----
2026-08-31 05:48 amESE 5.1 8.0----29.98- 65.8 62.1----
2026-08-31 05:42 amESE 5.1 8.0----29.98- 65.8 62.1----
2026-08-31 05:36 am SE 5.1 7.0----29.99- 65.8 62.1----
2026-08-31 05:30 am SE 5.1 8.0----29.99- 66.0 62.1----
2026-08-31 05:24 amESE 6.0 8.0----29.99- 66.0 62.1----
2026-08-31 05:18 amESE 6.0 7.0----29.99-- 62.1----
2026-08-31 05:12 amESE 5.1 8.0----29.99-- 62.1----
2026-08-31 05:06 am SE 4.1 8.9----30.00-- 62.1----
2026-08-31 05:00 am SE 5.1 7.0----29.99-0.02 66.0 62.1----
2026-08-31 04:54 amESE 5.1 7.0----29.99- 66.0 62.1----